Time;durP1;ratioP1;P1;durP2;ratioP2;P2;SDS_P1;SDS_P2;PMS_P1;PMS_P2;Temp;Humidity;BMP_temperature;BMP_pressure;BME280_temperature;BME280_humidity;BME280_pressure;Samples;Min_cycle;Max_cycle;Signal;HPM_P1;HPM_P2
2023/07/05 00:00:23;;;;;;;19.10;3.97;;;;;;;;;;4947599;28;20038;-93
2023/07/05 00:02:54;;;;;;;16.63;4.22;;;;;;;;;;4964939;28;20050;-96
2023/07/05 00:05:21;;;;;;;12.90;3.78;;;;;;;;;;4969224;28;20046;-96
2023/07/05 00:07:48;;;;;;;9.32;3.80;;;;;;;;;;4968831;28;20031;-96
2023/07/05 00:10:19;;;;;;;11.65;3.53;;;;;;;;;;4958500;28;20098;-96
2023/07/05 00:12:55;;;;;;;11.00;3.60;;;;;;;;;;4956316;28;20043;-96
2023/07/05 00:15:28;;;;;;;9.02;3.92;;;;;;;;;;4971458;28;20050;-96
2023/07/05 00:17:55;;;;;;;15.05;3.58;;;;;;;;;;4965883;28;20495;-96
2023/07/05 00:20:28;;;;;;;7.65;3.53;;;;;;;;;;4949170;28;20031;-96
2023/07/05 00:23:05;;;;;;;;;;;;;;;;;;;;;
2023/07/05 00:25:37;;;;;;;12.90;4.18;;;;;;;;;;4971245;28;20115;-96
2023/07/05 00:28:18;;;;;;;13.60;4.03;;;;;;;;;;4981561;28;20062;-96
2023/07/05 00:30:54;;;;;;;16.42;4.97;;;;;;;;;;4951634;28;20067;-96
2023/07/05 00:33:28;;;;;;;10.60;5.72;;;;;;;;;;4989327;28;20069;-96
2023/07/05 00:36:22;;;;;;;11.02;4.53;;;;;;;;;;4996459;23;20054;-89
2023/07/05 00:38:58;;;;;;;12.60;4.38;;;;;;;;;;5000242;28;20044;-89
2023/07/05 00:41:25;;;;;;;10.82;5.07;;;;;;;;;;5035042;28;20030;-88
2023/07/05 00:44:02;;;;;;;14.50;5.53;;;;;;;;;;5025950;28;20058;-88
2023/07/05 00:46:30;;;;;;;17.23;5.35;;;;;;;;;;5031417;28;20034;-89
2023/07/05 00:49:35;;;;;;;13.77;5.38;;;;;;;;;;5024055;28;20045;-88
2023/07/05 00:52:24;;;;;;;15.50;5.78;;;;;;;;;;4978331;28;20039;-89
2023/07/05 00:55:17;;;;;;;15.70;5.18;;;;;;;;;;4984360;28;20027;-90
2023/07/05 00:57:45;;;;;;;13.70;5.20;;;;;;;;;;4974534;28;20098;-88
2023/07/05 01:00:33;;;;;;;13.20;5.28;;;;;;;;;;5016608;28;20569;-89
2023/07/05 01:03:20;;;;;;;14.10;6.05;;;;;;;;;;5014316;28;20023;-89
2023/07/05 01:06:27;;;;;;;19.80;5.70;;;;;;;;;;5024733;28;20030;-89
2023/07/05 01:12:52;;;;;;;;;;;;;;;;;;;;;
2023/07/05 01:15:55;;;;;;;18.90;5.18;;;;;;;;;;4988257;28;20054;-90
2023/07/05 01:18:21;;;;;;;12.55;5.25;;;;;;;;;;4955578;29;20046;-88
2023/07/05 01:24:34;;;;;;;16.00;5.90;;;;;;;;;;4971755;28;20035;-89
2023/07/05 01:27:15;;;;;;;16.38;6.03;;;;;;;;;;4967550;29;20035;-88
2023/07/05 01:30:01;;;;;;;13.18;5.28;;;;;;;;;;4986893;28;20502;-88
2023/07/05 01:32:47;;;;;;;22.00;5.82;;;;;;;;;;4983030;28;20043;-89
2023/07/05 01:35:17;;;;;;;15.32;5.80;;;;;;;;;;4989186;28;20047;-88
2023/07/05 01:37:45;;;;;;;19.38;6.25;;;;;;;;;;4983125;28;20042;-89
2023/07/05 01:40:12;;;;;;;16.95;7.22;;;;;;;;;;5023273;28;20133;-90
2023/07/05 01:42:41;;;;;;;12.60;6.45;;;;;;;;;;5022464;28;20018;-89
2023/07/05 01:45:13;;;;;;;27.27;7.93;;;;;;;;;;5009611;28;20034;-89
2023/07/05 01:48:03;;;;;;;16.58;6.72;;;;;;;;;;5015647;28;20040;-89
2023/07/05 01:50:50;;;;;;;25.23;7.18;;;;;;;;;;5005486;28;20044;-89
2023/07/05 01:53:23;;;;;;;23.60;7.22;;;;;;;;;;5012349;28;20072;-90
2023/07/05 01:56:05;;;;;;;18.20;6.97;;;;;;;;;;5012268;28;20033;-90
2023/07/05 01:58:49;;;;;;;19.02;8.20;;;;;;;;;;5015303;28;20018;-90
2023/07/05 02:01:23;;;;;;;22.17;7.25;;;;;;;;;;5006392;28;20099;-90
2023/07/05 02:03:52;;;;;;;17.10;7.07;;;;;;;;;;5017830;28;20412;-90
2023/07/05 02:06:20;;;;;;;13.73;7.13;;;;;;;;;;4995858;28;20021;-91
2023/07/05 02:08:49;;;;;;;18.50;7.13;;;;;;;;;;4977181;28;20494;-90
2023/07/05 02:11:15;;;;;;;23.27;7.78;;;;;;;;;;5006934;28;20045;-90
2023/07/05 02:13:42;;;;;;;25.35;7.18;;;;;;;;;;5001100;28;20045;-89
2023/07/05 02:16:10;;;;;;;24.27;8.10;;;;;;;;;;4998649;28;20034;-89
2023/07/05 02:18:38;;;;;;;20.73;7.75;;;;;;;;;;5010819;28;20033;-91
2023/07/05 02:21:08;;;;;;;22.75;7.40;;;;;;;;;;4996408;28;20049;-90
2023/07/05 02:23:34;;;;;;;19.73;7.97;;;;;;;;;;4985176;28;20038;-91
2023/07/05 02:26:04;;;;;;;24.98;7.72;;;;;;;;;;4978256;28;20037;-90
2023/07/05 02:28:30;;;;;;;17.55;8.77;;;;;;;;;;4995750;28;20101;-90
2023/07/05 02:30:57;;;;;;;18.25;7.80;;;;;;;;;;4991316;28;20038;-89
2023/07/05 02:33:23;;;;;;;25.80;8.10;;;;;;;;;;4982130;28;20105;-89
2023/07/05 02:35:59;;;;;;;20.77;8.40;;;;;;;;;;4996228;28;20038;-91
2023/07/05 02:38:25;;;;;;;30.83;8.88;;;;;;;;;;4998327;28;20047;-92
2023/07/05 02:41:03;;;;;;;17.65;5.57;;;;;;;;;;4993516;28;20030;-91
2023/07/05 02:43:32;;;;;;;22.25;8.55;;;;;;;;;;4993644;28;20131;-90
2023/07/05 02:45:58;;;;;;;14.05;6.97;;;;;;;;;;4991395;28;20022;-90
2023/07/05 02:48:27;;;;;;;14.10;7.22;;;;;;;;;;5001709;28;20533;-91
2023/07/05 02:50:54;;;;;;;16.95;8.38;;;;;;;;;;4997814;28;20030;-90
2023/07/05 02:53:20;;;;;;;16.42;6.60;;;;;;;;;;4983527;28;20038;-90
2023/07/05 02:55:46;;;;;;;23.83;9.00;;;;;;;;;;4995711;28;20061;-90
2023/07/05 02:58:15;;;;;;;23.85;9.05;;;;;;;;;;4984223;28;20044;-90
2023/07/05 03:00:56;;;;;;;24.60;9.15;;;;;;;;;;5013681;28;20038;-90
2023/07/05 03:03:22;;;;;;;20.10;8.50;;;;;;;;;;5008569;28;20084;-90
2023/07/05 03:06:01;;;;;;;14.40;8.15;;;;;;;;;;4980625;28;20470;-90
2023/07/05 03:08:37;;;;;;;22.20;7.97;;;;;;;;;;5014086;28;20034;-90
2023/07/05 03:11:04;;;;;;;22.38;8.50;;;;;;;;;;4999376;28;20052;-90
2023/07/05 03:13:34;;;;;;;24.80;9.13;;;;;;;;;;5002316;28;20736;-90
2023/07/05 03:16:10;;;;;;;20.73;8.05;;;;;;;;;;5001011;28;20153;-89
2023/07/05 03:18:37;;;;;;;29.30;8.95;;;;;;;;;;4992523;28;20101;-89
2023/07/05 03:21:07;;;;;;;21.25;8.23;;;;;;;;;;5002088;28;20487;-90
2023/07/05 03:23:34;;;;;;;20.35;8.63;;;;;;;;;;4997458;28;20124;-89
2023/07/05 03:26:04;;;;;;;21.65;8.93;;;;;;;;;;4979072;28;20034;-90
2023/07/05 03:28:34;;;;;;;23.45;9.52;;;;;;;;;;5018266;28;20121;-90
2023/07/05 03:31:13;;;;;;;20.30;8.68;;;;;;;;;;5000307;28;20034;-90
2023/07/05 03:33:44;;;;;;;27.10;8.88;;;;;;;;;;5018680;28;20386;-90
2023/07/05 03:36:12;;;;;;;21.65;9.18;;;;;;;;;;5002614;28;20041;-91
2023/07/05 03:38:41;;;;;;;19.10;8.40;;;;;;;;;;5000202;28;20483;-90
2023/07/05 03:41:18;;;;;;;25.50;10.10;;;;;;;;;;5002018;28;20025;-90
2023/07/05 03:43:51;;;;;;;25.38;10.57;;;;;;;;;;5018390;28;20095;-89
2023/07/05 03:46:18;;;;;;;22.58;9.55;;;;;;;;;;4999108;28;20035;-89
2023/07/05 03:48:56;;;;;;;22.48;9.65;;;;;;;;;;5005982;28;20030;-88
2023/07/05 03:51:41;;;;;;;11.85;6.38;;;;;;;;;;5001851;28;20034;-89
2023/07/05 03:54:13;;;;;;;18.83;8.85;;;;;;;;;;5004978;28;20038;-89
2023/07/05 03:56:46;;;;;;;23.17;10.52;;;;;;;;;;4989507;28;20084;-89
2023/07/05 03:59:15;;;;;;;29.23;10.43;;;;;;;;;;4989984;28;20115;-89
2023/07/05 04:01:47;;;;;;;27.83;10.50;;;;;;;;;;5003545;28;20129;-90
2023/07/05 04:04:30;;;;;;;22.35;10.77;;;;;;;;;;5001877;28;20029;-90
2023/07/05 04:06:59;;;;;;;23.27;10.15;;;;;;;;;;4999644;28;20037;-90
2023/07/05 04:09:37;;;;;;;24.00;10.90;;;;;;;;;;5004765;28;20070;-89
2023/07/05 04:12:06;;;;;;;25.65;12.00;;;;;;;;;;5004340;28;20038;-91
2023/07/05 04:14:36;;;;;;;20.88;9.55;;;;;;;;;;5016557;28;20038;-89
2023/07/05 04:17:02;;;;;;;21.50;10.30;;;;;;;;;;4985731;28;20113;-90
2023/07/05 04:19:35;;;;;;;27.55;10.32;;;;;;;;;;4983651;28;20038;-90
2023/07/05 04:22:05;;;;;;;23.38;5.30;;;;;;;;;;4985300;28;20057;-89
2023/07/05 04:24:32;;;;;;;18.85;8.18;;;;;;;;;;5003975;28;20049;-89
2023/07/05 04:26:58;;;;;;;18.60;8.45;;;;;;;;;;4988603;28;20084;-88
2023/07/05 04:29:25;;;;;;;16.67;5.93;;;;;;;;;;4987030;28;20068;-89
2023/07/05 04:32:11;;;;;;;12.55;5.85;;;;;;;;;;5004550;28;20034;-88
2023/07/05 04:34:40;;;;;;;17.23;7.50;;;;;;;;;;4991352;28;20038;-89
2023/07/05 04:37:16;;;;;;;17.63;8.15;;;;;;;;;;4986936;28;20021;-89
2023/07/05 04:39:43;;;;;;;13.05;5.95;;;;;;;;;;4998018;28;20038;-90
2023/07/05 04:42:24;;;;;;;16.80;9.43;;;;;;;;;;4984061;28;20043;-90
2023/07/05 04:44:58;;;;;;;23.05;9.02;;;;;;;;;;4985437;28;20053;-89
2023/07/05 04:47:28;;;;;;;14.68;7.85;;;;;;;;;;4987132;28;20062;-90
2023/07/05 04:49:58;;;;;;;14.90;5.97;;;;;;;;;;4968816;28;20102;-88
2023/07/05 04:52:28;;;;;;;21.98;7.75;;;;;;;;;;4989979;28;20030;-90
2023/07/05 04:55:36;;;;;;;;;;;;;;;;;;;;;
2023/07/05 04:58:07;;;;;;;15.73;5.85;;;;;;;;;;4999955;28;21417;-89
2023/07/05 05:00:36;;;;;;;16.63;4.97;;;;;;;;;;4991798;28;20127;-89
2023/07/05 05:03:03;;;;;;;19.35;7.72;;;;;;;;;;4984716;28;20094;-89
2023/07/05 05:05:33;;;;;;;18.35;7.00;;;;;;;;;;4990253;28;20019;-88
2023/07/05 05:08:03;;;;;;;21.05;6.90;;;;;;;;;;4984515;28;20022;-89
2023/07/05 05:13:22;;;;;;;9.50;5.50;;;;;;;;;;4924320;29;20076;-89
2023/07/05 05:15:59;;;;;;;10.75;4.63;;;;;;;;;;4991045;28;20049;-91
2023/07/05 05:18:28;;;;;;;7.72;2.80;;;;;;;;;;5002831;28;20030;-90
2023/07/05 05:21:18;;;;;;;4.72;2.67;;;;;;;;;;5003612;28;20022;-90
2023/07/05 05:23:49;;;;;;;5.72;3.42;;;;;;;;;;5003378;28;20030;-90
2023/07/05 05:26:24;;;;;;;5.57;3.28;;;;;;;;;;5003463;28;20061;-91
2023/07/05 05:29:01;;;;;;;6.93;3.90;;;;;;;;;;4987024;28;20565;-91
2023/07/05 05:31:56;;;;;;;5.95;2.97;;;;;;;;;;5000537;28;20029;-92
2023/07/05 05:34:58;;;;;;;4.82;2.53;;;;;;;;;;5003795;28;20049;-93
2023/07/05 05:37:47;;;;;;;5.82;2.92;;;;;;;;;;4898032;29;20036;-91
2023/07/05 05:40:17;;;;;;;10.20;3.40;;;;;;;;;;4909221;29;20021;-90
2023/07/05 07:35:09;;;;;;;6.90;2.30;;;;;;;;;;1884209;23;20079;-85
2023/07/05 07:44:40;;;;;;;7.07;2.42;;;;;;;;;;4926637;29;20072;-89
2023/07/05 07:47:10;;;;;;;4.78;2.53;;;;;;;;;;4913982;29;20036;-88
2023/07/05 07:50:05;;;;;;;4.22;2.10;;;;;;;;;;4921566;29;20020;-88
2023/07/05 07:52:38;;;;;;;4.32;2.10;;;;;;;;;;4928953;29;20033;-87
2023/07/05 07:55:04;;;;;;;3.47;1.75;;;;;;;;;;4921085;29;20627;-89
2023/07/05 07:58:00;;;;;;;5.85;1.85;;;;;;;;;;4908897;29;20408;-87
2023/07/05 08:00:46;;;;;;;6.00;2.13;;;;;;;;;;4857097;29;20056;-88
2023/07/05 08:03:12;;;;;;;5.72;1.52;;;;;;;;;;4845732;29;20049;-88
2023/07/05 08:06:06;;;;;;;3.42;1.98;;;;;;;;;;4891114;29;20076;-88
2023/07/05 08:08:44;;;;;;;4.20;2.17;;;;;;;;;;4915070;29;20592;-87
2023/07/05 08:11:10;;;;;;;9.05;1.88;;;;;;;;;;4914708;29;20083;-87
2023/07/05 08:13:40;;;;;;;4.22;1.65;;;;;;;;;;4904251;29;20405;-87
2023/07/05 08:16:16;;;;;;;3.50;0.95;;;;;;;;;;4905005;29;20036;-88
2023/07/05 08:18:47;;;;;;;3.35;1.08;;;;;;;;;;4928796;29;20141;-88
2023/07/05 08:21:20;;;;;;;1.63;0.85;;;;;;;;;;4931025;29;20028;-88
2023/07/05 08:24:03;;;;;;;;;;;;;;;;;;;;;
2023/07/05 08:26:32;;;;;;;2.10;0.88;;;;;;;;;;4912618;29;20060;-85
2023/07/05 08:29:12;;;;;;;6.32;1.30;;;;;;;;;;4886063;29;20533;-88
2023/07/05 08:31:38;;;;;;;0.75;0.65;;;;;;;;;;4901548;29;20151;-88
2023/07/05 08:34:05;;;;;;;3.75;0.93;;;;;;;;;;4901720;29;20025;-88
2023/07/05 08:36:51;;;;;;;1.60;0.40;;;;;;;;;;4887135;29;20037;-88
2023/07/05 08:39:22;;;;;;;0.75;0.45;;;;;;;;;;4902609;29;20096;-87
2023/07/05 08:42:12;;;;;;;1.50;0.80;;;;;;;;;;4889326;29;20035;-88
2023/07/05 08:44:38;;;;;;;1.40;0.65;;;;;;;;;;4888464;29;20079;-87
2023/07/05 08:47:23;;;;;;;0.63;0.22;;;;;;;;;;4899906;29;20052;-87
2023/07/05 08:50:08;;;;;;;0.40;0.40;;;;;;;;;;4898293;29;20051;-88
2023/07/05 08:52:43;;;;;;;2.75;0.43;;;;;;;;;;4900107;29;20164;-88
2023/07/05 08:55:14;;;;;;;1.30;0.30;;;;;;;;;;4886336;29;20036;-88
2023/07/05 08:57:49;;;;;;;1.45;0.52;;;;;;;;;;4905469;29;20039;-88
2023/07/05 09:00:18;;;;;;;1.17;0.50;;;;;;;;;;4894375;29;20116;-88
2023/07/05 09:02:50;;;;;;;0.20;0.20;;;;;;;;;;4901032;29;20040;-88
2023/07/05 09:05:23;;;;;;;0.20;0.10;;;;;;;;;;4870718;29;20130;-87
2023/07/05 09:08:11;;;;;;;0.10;0.10;;;;;;;;;;4908613;29;20174;-88
2023/07/05 09:11:09;;;;;;;0.20;0.17;;;;;;;;;;4857066;29;20100;-88
2023/07/05 09:13:40;;;;;;;0.00;0.00;;;;;;;;;;4889840;29;20049;-88
2023/07/05 09:16:30;;;;;;;0.00;0.00;;;;;;;;;;4901087;29;20052;-88
2023/07/05 09:19:08;;;;;;;0.00;0.00;;;;;;;;;;4905130;29;20033;-88
2023/07/05 09:22:01;;;;;;;0.00;0.00;;;;;;;;;;4905631;29;20528;-88
2023/07/05 09:24:29;;;;;;;0.00;0.00;;;;;;;;;;4885381;29;20033;-88
2023/07/05 09:27:14;;;;;;;0.00;0.00;;;;;;;;;;4903706;29;20429;-88
2023/07/05 09:30:13;;;;;;;0.00;0.00;;;;;;;;;;4903601;29;20077;-88
2023/07/05 09:32:40;;;;;;;0.10;0.10;;;;;;;;;;4903349;29;20097;-88
2023/07/05 09:35:15;;;;;;;0.00;0.00;;;;;;;;;;4910662;29;20033;-89
2023/07/05 09:37:45;;;;;;;0.00;0.00;;;;;;;;;;4888297;29;20135;-88
2023/07/05 09:40:15;;;;;;;0.00;0.00;;;;;;;;;;4903103;29;20548;-89
2023/07/05 09:42:48;;;;;;;0.00;0.00;;;;;;;;;;4904512;29;20056;-90
2023/07/05 09:45:23;;;;;;;2.53;0.38;;;;;;;;;;4903877;29;20044;-89
2023/07/05 09:47:53;;;;;;;2.53;0.70;;;;;;;;;;4900839;29;20322;-89
2023/07/05 09:50:32;;;;;;;2.53;0.77;;;;;;;;;;4900664;29;20139;-89
2023/07/05 09:53:00;;;;;;;6.43;1.42;;;;;;;;;;4891379;29;20029;-90
2023/07/05 09:55:29;;;;;;;4.63;1.73;;;;;;;;;;4889499;29;20069;-90
2023/07/05 09:58:28;;;;;;;5.07;1.27;;;;;;;;;;4888049;29;20036;-88
2023/07/05 10:00:47;;;;;;;2.30;0.40;;;;;;;;;;4889176;29;20032;-88
2023/07/05 10:03:15;;;;;;;0.30;0.30;;;;;;;;;;4873283;29;20580;-89
2023/07/05 10:05:50;;;;;;;2.10;0.60;;;;;;;;;;4887101;29;20481;-89
2023/07/05 10:08:25;;;;;;;0.85;0.52;;;;;;;;;;4901681;29;20020;-88
2023/07/05 10:10:51;;;;;;;8.43;0.95;;;;;;;;;;4904392;29;20048;-88
2023/07/05 10:13:27;;;;;;;0.30;0.30;;;;;;;;;;4871813;29;20044;-87
2023/07/05 10:16:04;;;;;;;0.17;0.17;;;;;;;;;;4910211;29;20606;-89
2023/07/05 10:18:36;;;;;;;3.10;0.35;;;;;;;;;;4903434;29;20079;-89
2023/07/05 10:21:26;;;;;;;2.28;0.47;;;;;;;;;;4898329;29;20029;-89
2023/07/05 10:23:52;;;;;;;7.30;0.70;;;;;;;;;;4899051;29;20045;-88
2023/07/05 10:26:25;;;;;;;5.40;0.60;;;;;;;;;;4887336;29;20066;-88
2023/07/05 10:28:54;;;;;;;2.90;0.73;;;;;;;;;;4892028;29;20135;-89
2023/07/05 10:31:38;;;;;;;0.70;0.55;;;;;;;;;;4914908;29;20086;-89
2023/07/05 10:34:23;;;;;;;0.80;0.40;;;;;;;;;;4888610;29;20052;-89
2023/07/05 10:36:57;;;;;;;0.20;0.20;;;;;;;;;;4897169;29;20052;-89
2023/07/05 10:39:26;;;;;;;1.73;0.40;;;;;;;;;;4903901;29;20045;-88
2023/07/05 10:41:56;;;;;;;3.53;0.82;;;;;;;;;;4901855;29;20035;-89
2023/07/05 10:44:34;;;;;;;1.17;0.63;;;;;;;;;;4902768;29;20041;-90
2023/07/05 10:47:09;;;;;;;0.80;0.50;;;;;;;;;;4904378;29;20119;-89
2023/07/05 10:49:36;;;;;;;5.68;0.70;;;;;;;;;;4895975;29;20032;-89
2023/07/05 10:52:05;;;;;;;1.17;0.57;;;;;;;;;;4883967;29;20073;-90
2023/07/05 10:54:43;;;;;;;3.60;0.10;;;;;;;;;;4903842;29;20037;-89
2023/07/05 10:57:31;;;;;;;4.18;0.85;;;;;;;;;;4900722;29;20036;-89
2023/07/05 11:00:28;;;;;;;6.50;0.85;;;;;;;;;;4888106;29;20132;-88
2023/07/05 11:03:21;;;;;;;0.63;0.43;;;;;;;;;;4910297;29;20545;-91
2023/07/05 11:05:58;;;;;;;3.22;0.57;;;;;;;;;;4906316;29;20025;-89
2023/07/05 11:08:35;;;;;;;5.60;0.73;;;;;;;;;;4897349;29;20039;-89
2023/07/05 11:11:33;;;;;;;4.45;1.15;;;;;;;;;;4903707;29;20050;-89
2023/07/05 11:14:09;;;;;;;1.05;0.60;;;;;;;;;;4866010;29;20052;-89
2023/07/05 11:16:43;;;;;;;1.08;0.60;;;;;;;;;;4898320;29;20040;-88
2023/07/05 11:19:54;;;;;;;5.10;0.68;;;;;;;;;;4880382;29;20024;-88
2023/07/05 11:22:52;;;;;;;0.80;0.75;;;;;;;;;;4900016;29;20485;-89
2023/07/05 11:25:19;;;;;;;1.38;0.77;;;;;;;;;;4877910;29;20123;-89
2023/07/05 11:27:58;;;;;;;2.42;0.70;;;;;;;;;;4887093;29;20135;-89
2023/07/05 11:30:39;;;;;;;2.92;1.17;;;;;;;;;;4894297;29;20120;-89
2023/07/05 11:33:06;;;;;;;2.40;0.85;;;;;;;;;;4887996;29;20108;-89
2023/07/05 11:35:51;;;;;;;5.25;0.75;;;;;;;;;;4895592;29;20097;-89
2023/07/05 11:38:40;;;;;;;4.55;1.00;;;;;;;;;;4879380;29;20044;-89
2023/07/05 11:41:07;;;;;;;2.22;0.60;;;;;;;;;;4898740;29;20116;-89
2023/07/05 11:43:36;;;;;;;4.88;1.45;;;;;;;;;;4899861;29;20032;-89
2023/07/05 11:46:03;;;;;;;2.38;1.00;;;;;;;;;;4895973;29;20047;-89
2023/07/05 11:48:43;;;;;;;1.05;0.75;;;;;;;;;;4894406;29;20036;-89
2023/07/05 11:51:29;;;;;;;5.93;1.00;;;;;;;;;;4879651;29;20489;-89
2023/07/05 11:53:57;;;;;;;5.10;1.05;;;;;;;;;;4881189;29;20330;-89
2023/07/05 11:56:28;;;;;;;7.20;0.80;;;;;;;;;;4880564;29;20116;-90
2023/07/05 11:58:55;;;;;;;5.88;1.00;;;;;;;;;;4883897;29;20060;-89
2023/07/05 12:01:30;;;;;;;5.55;1.65;;;;;;;;;;4885193;29;20518;-88
2023/07/05 12:04:05;;;;;;;7.85;2.13;;;;;;;;;;4882154;29;20031;-88
2023/07/05 12:06:47;;;;;;;2.85;1.20;;;;;;;;;;4878790;29;20489;-89
2023/07/05 12:09:27;;;;;;;3.83;1.05;;;;;;;;;;4888818;29;20564;-88
2023/07/05 12:12:05;;;;;;;1.27;0.63;;;;;;;;;;4894458;29;20036;-89
2023/07/05 12:14:33;;;;;;;7.95;1.00;;;;;;;;;;4881323;29;20047;-88
2023/07/05 12:16:59;;;;;;;9.27;1.50;;;;;;;;;;4881528;29;20135;-88
2023/07/05 12:19:30;;;;;;;6.35;1.65;;;;;;;;;;4880423;29;20049;-87
2023/07/05 12:22:01;;;;;;;10.57;2.10;;;;;;;;;;4893615;29;20048;-88
2023/07/05 12:24:27;;;;;;;4.97;1.52;;;;;;;;;;4879770;29;20489;-88
2023/07/05 12:26:59;;;;;;;10.65;1.30;;;;;;;;;;4881499;29;20048;-88
2023/07/05 12:29:32;;;;;;;4.63;1.75;;;;;;;;;;4869706;29;20044;-87
2023/07/05 12:32:07;;;;;;;9.63;1.90;;;;;;;;;;4881279;29;20375;-86
2023/07/05 12:34:36;;;;;;;4.75;1.75;;;;;;;;;;4895120;29;20066;-87
2023/07/05 12:37:02;;;;;;;8.90;1.65;;;;;;;;;;4880417;29;20426;-87
2023/07/05 12:39:28;;;;;;;9.30;1.50;;;;;;;;;;4881669;29;20076;-87
2023/07/05 12:42:03;;;;;;;1.10;0.55;;;;;;;;;;4893290;29;20037;-87
2023/07/05 12:44:34;;;;;;;2.30;1.02;;;;;;;;;;4879890;29;20055;-87
2023/07/05 12:47:12;;;;;;;7.32;1.75;;;;;;;;;;4896220;29;20031;-87
2023/07/05 12:49:40;;;;;;;3.90;1.45;;;;;;;;;;4892492;29;20064;-87
2023/07/05 12:52:16;;;;;;;8.63;1.90;;;;;;;;;;4882626;29;20035;-87
2023/07/05 12:54:43;;;;;;;19.27;1.65;;;;;;;;;;4896056;29;20056;-86
2023/07/05 12:57:20;;;;;;;3.42;0.85;;;;;;;;;;4880665;29;20043;-88
2023/07/05 12:59:48;;;;;;;5.47;0.95;;;;;;;;;;4892926;29;20047;-86
2023/07/05 13:02:16;;;;;;;2.83;0.98;;;;;;;;;;4896034;29;20092;-86
2023/07/05 13:04:44;;;;;;;6.15;1.73;;;;;;;;;;4898573;29;20520;-87
2023/07/05 13:07:22;;;;;;;5.82;1.17;;;;;;;;;;4886069;29;20036;-87
2023/07/05 13:09:52;;;;;;;11.15;2.42;;;;;;;;;;4899619;29;20037;-87
2023/07/05 13:12:21;;;;;;;15.60;1.63;;;;;;;;;;4899865;29;20583;-87
2023/07/05 13:15:05;;;;;;;10.32;2.15;;;;;;;;;;4881711;29;20037;-87
2023/07/05 13:17:32;;;;;;;9.63;1.92;;;;;;;;;;4892303;29;20068;-88
2023/07/05 13:20:20;;;;;;;6.45;2.55;;;;;;;;;;4870540;29;20036;-86
2023/07/05 13:22:52;;;;;;;4.60;2.00;;;;;;;;;;4898356;29;20122;-87
2023/07/05 13:25:29;;;;;;;13.40;1.90;;;;;;;;;;4889039;29;20032;-86
2023/07/05 13:27:56;;;;;;;11.13;2.25;;;;;;;;;;4888546;29;20056;-87
2023/07/05 13:30:24;;;;;;;9.88;1.27;;;;;;;;;;4881640;29;20131;-87
2023/07/05 13:32:55;;;;;;;7.15;1.60;;;;;;;;;;4901872;29;20053;-87
2023/07/05 13:35:26;;;;;;;5.35;1.42;;;;;;;;;;4900211;29;20064;-87
2023/07/05 13:37:59;;;;;;;7.90;1.92;;;;;;;;;;4885329;29;20089;-87
2023/07/05 13:40:32;;;;;;;10.75;1.73;;;;;;;;;;4901002;29;20414;-87
2023/07/05 13:43:00;;;;;;;19.95;2.83;;;;;;;;;;4897649;29;20029;-87
2023/07/05 13:45:30;;;;;;;17.73;2.42;;;;;;;;;;4886795;29;20041;-86
2023/07/05 13:47:59;;;;;;;1.35;1.00;;;;;;;;;;4887134;29;20111;-87
2023/07/05 13:50:30;;;;;;;20.75;2.00;;;;;;;;;;4886798;29;20032;-87
2023/07/05 13:52:57;;;;;;;5.28;1.48;;;;;;;;;;4900876;29;20036;-87
2023/07/05 13:55:24;;;;;;;7.38;1.42;;;;;;;;;;4885267;29;20084;-88
2023/07/05 13:57:59;;;;;;;8.93;1.40;;;;;;;;;;4889700;29;20052;-87
2023/07/05 14:00:37;;;;;;;5.30;1.77;;;;;;;;;;4906565;29;20032;-87
2023/07/05 14:03:04;;;;;;;6.38;1.98;;;;;;;;;;4901042;29;20033;-86
2023/07/05 14:05:31;;;;;;;10.20;1.75;;;;;;;;;;4873282;29;20580;-87
2023/07/05 14:07:58;;;;;;;3.78;1.20;;;;;;;;;;4903096;29;20028;-87
2023/07/05 14:10:24;;;;;;;2.17;1.02;;;;;;;;;;4888870;29;20044;-88
2023/07/05 14:12:51;;;;;;;14.45;1.95;;;;;;;;;;4894086;29;20036;-86
2023/07/05 14:15:38;;;;;;;6.93;1.50;;;;;;;;;;4905306;29;20100;-88
2023/07/05 14:18:05;;;;;;;5.50;1.88;;;;;;;;;;4904946;29;20112;-88
2023/07/05 14:20:34;;;;;;;6.05;1.58;;;;;;;;;;4897890;29;20032;-87
2023/07/05 14:23:08;;;;;;;7.00;1.33;;;;;;;;;;4876466;29;20063;-87
2023/07/05 14:25:42;;;;;;;13.18;1.73;;;;;;;;;;4902913;29;20092;-87
2023/07/05 14:28:08;;;;;;;6.80;1.85;;;;;;;;;;4889434;29;20032;-88
2023/07/05 14:30:34;;;;;;;7.10;2.00;;;;;;;;;;4902156;29;20039;-87
2023/07/05 14:33:01;;;;;;;11.88;2.25;;;;;;;;;;4884675;29;20478;-87
2023/07/05 14:35:27;;;;;;;16.10;2.08;;;;;;;;;;4888499;29;20417;-87
2023/07/05 14:37:54;;;;;;;14.50;2.40;;;;;;;;;;4886729;29;20172;-88
2023/07/05 14:40:24;;;;;;;4.53;1.20;;;;;;;;;;4900313;29;20044;-88
2023/07/05 14:42:57;;;;;;;8.70;2.00;;;;;;;;;;4888296;29;20020;-87
2023/07/05 14:45:54;;;;;;;7.50;2.03;;;;;;;;;;4870898;29;20386;-87
2023/07/05 14:48:27;;;;;;;2.47;1.50;;;;;;;;;;4895194;29;20028;-88
2023/07/05 14:51:03;;;;;;;12.27;2.55;;;;;;;;;;4891300;29;20092;-87
2023/07/05 14:53:29;;;;;;;26.00;5.20;;;;;;;;;;4887797;29;20033;-87
2023/07/05 14:55:56;;;;;;;8.60;2.22;;;;;;;;;;4884881;29;20040;-87
2023/07/05 14:58:23;;;;;;;8.32;2.25;;;;;;;;;;4891842;29;20033;-87
2023/07/05 15:00:51;;;;;;;12.35;2.33;;;;;;;;;;4884174;29;20084;-87
2023/07/05 15:03:28;;;;;;;15.82;2.03;;;;;;;;;;4883021;29;20021;-87
2023/07/05 15:06:02;;;;;;;5.85;1.15;;;;;;;;;;4896772;29;20040;-86
2023/07/05 15:08:29;;;;;;;2.90;1.25;;;;;;;;;;4889904;29;20485;-87
2023/07/05 15:10:59;;;;;;;4.43;1.38;;;;;;;;;;4888780;29;20056;-87
2023/07/05 15:13:32;;;;;;;4.38;1.38;;;;;;;;;;4881677;29;20547;-88
2023/07/05 15:16:01;;;;;;;4.90;1.90;;;;;;;;;;4901061;29;20107;-87
2023/07/05 15:18:29;;;;;;;2.35;1.38;;;;;;;;;;4901656;29;20043;-87
2023/07/05 15:20:55;;;;;;;7.80;1.30;;;;;;;;;;4876404;29;20044;-86
2023/07/05 15:23:31;;;;;;;3.80;1.25;;;;;;;;;;4887623;29;20040;-89
2023/07/05 15:26:04;;;;;;;5.63;1.45;;;;;;;;;;4886827;29;20049;-86
2023/07/05 15:28:52;;;;;;;2.35;1.23;;;;;;;;;;4887599;29;20036;-87
2023/07/05 15:31:18;;;;;;;18.20;4.03;;;;;;;;;;4902109;29;20036;-86
2023/07/05 15:33:45;;;;;;;12.88;2.17;;;;;;;;;;4900124;29;20097;-86
2023/07/05 15:36:17;;;;;;;5.40;1.75;;;;;;;;;;4884556;29;20100;-86
2023/07/05 15:39:04;;;;;;;11.43;2.40;;;;;;;;;;4899071;29;20033;-87
2023/07/05 15:41:33;;;;;;;6.72;2.03;;;;;;;;;;4884237;29;20029;-87
2023/07/05 15:44:03;;;;;;;4.93;1.67;;;;;;;;;;4887162;29;20049;-86
2023/07/05 15:46:29;;;;;;;6.65;2.47;;;;;;;;;;4888261;29;20036;-86
2023/07/05 15:48:56;;;;;;;10.38;2.97;;;;;;;;;;4868759;29;20061;-86
2023/07/05 15:51:22;;;;;;;3.17;1.95;;;;;;;;;;4884768;29;20133;-86
2023/07/05 15:53:50;;;;;;;9.68;1.77;;;;;;;;;;4882079;29;20560;-85
2023/07/05 15:56:16;;;;;;;11.35;2.05;;;;;;;;;;4888784;29;20036;-86
2023/07/05 15:58:48;;;;;;;3.58;1.90;;;;;;;;;;4872779;29;20637;-86
2023/07/05 16:01:20;;;;;;;3.90;2.00;;;;;;;;;;4897255;29;20040;-86
2023/07/05 16:03:50;;;;;;;5.20;1.88;;;;;;;;;;4866751;29;20520;-86
2023/07/05 16:09:11;;;;;;;6.60;2.10;;;;;;;;;;4878646;29;20048;-87
2023/07/05 16:11:40;;;;;;;6.25;2.30;;;;;;;;;;4883857;29;20044;-87
2023/07/05 16:14:07;;;;;;;14.05;3.35;;;;;;;;;;4882240;29;20474;-86
2023/07/05 16:16:33;;;;;;;5.72;2.03;;;;;;;;;;4867544;29;20064;-86
2023/07/05 16:18:59;;;;;;;6.15;2.28;;;;;;;;;;4883483;29;20300;-87
2023/07/05 16:21:25;;;;;;;4.80;1.83;;;;;;;;;;4868369;29;20069;-86
2023/07/05 16:23:53;;;;;;;10.32;3.17;;;;;;;;;;4860245;29;20056;-87
2023/07/05 16:26:28;;;;;;;7.95;2.58;;;;;;;;;;4978317;23;20110;-88
2023/07/05 16:28:55;;;;;;;9.05;2.42;;;;;;;;;;4921535;29;20074;-87
2023/07/05 16:31:21;;;;;;;5.70;2.00;;;;;;;;;;4934421;29;20047;-87
2023/07/05 16:33:47;;;;;;;9.80;2.75;;;;;;;;;;4901946;29;20524;-86
2023/07/05 16:36:14;;;;;;;6.18;2.72;;;;;;;;;;4901400;29;20035;-87
2023/07/05 16:38:41;;;;;;;9.68;2.20;;;;;;;;;;4915824;29;20095;-87
2023/07/05 16:41:09;;;;;;;6.65;1.88;;;;;;;;;;4936630;29;20032;-87
2023/07/05 16:43:36;;;;;;;10.88;2.45;;;;;;;;;;4900779;29;20108;-87
2023/07/05 16:46:03;;;;;;;11.18;2.38;;;;;;;;;;4919461;29;20040;-87
2023/07/05 16:48:29;;;;;;;8.50;2.03;;;;;;;;;;4918557;29;20035;-87
2023/07/05 16:50:56;;;;;;;4.20;1.90;;;;;;;;;;4937321;29;20101;-86
2023/07/05 16:53:23;;;;;;;4.55;2.03;;;;;;;;;;4902417;29;20058;-87
2023/07/05 16:55:50;;;;;;;5.45;2.05;;;;;;;;;;4935048;29;20040;-87
2023/07/05 16:58:17;;;;;;;5.90;2.20;;;;;;;;;;4920101;29;20032;-87
2023/07/05 17:00:44;;;;;;;10.30;2.88;;;;;;;;;;4920764;29;20472;-87
2023/07/05 17:03:14;;;;;;;6.97;1.75;;;;;;;;;;4936626;29;20063;-87
2023/07/05 17:05:40;;;;;;;8.52;2.35;;;;;;;;;;4902975;29;20162;-87
2023/07/05 17:08:08;;;;;;;3.92;0.75;;;;;;;;;;4918792;29;20510;-87
2023/07/05 17:10:38;;;;;;;13.07;3.08;;;;;;;;;;4933342;29;20088;-88
2023/07/05 17:13:04;;;;;;;7.65;2.08;;;;;;;;;;4917946;29;20047;-87
2023/07/05 17:15:32;;;;;;;7.22;2.50;;;;;;;;;;4914166;29;20070;-88
2023/07/05 17:18:01;;;;;;;4.43;2.00;;;;;;;;;;4951383;28;20452;-88
2023/07/05 17:20:28;;;;;;;10.45;2.00;;;;;;;;;;4944017;28;20447;-87
2023/07/05 17:22:56;;;;;;;10.65;2.15;;;;;;;;;;4903520;29;20074;-87
2023/07/05 17:25:25;;;;;;;3.97;1.73;;;;;;;;;;4904484;29;20031;-87
2023/07/05 17:27:52;;;;;;;6.60;2.10;;;;;;;;;;4922557;29;20575;-88
2023/07/05 17:30:19;;;;;;;7.28;2.47;;;;;;;;;;4937050;29;20443;-87